sensor_id;sensor_type;location;lat;lon;timestamp;temperature;humidity
7564;DHT22;3823;53.586;10.040;2022-09-03T00:00:17;16.40;1.00
7564;DHT22;3823;53.586;10.040;2022-09-03T00:02:44;16.40;1.00
7564;DHT22;3823;53.586;10.040;2022-09-03T00:05:20;16.30;1.00
7564;DHT22;3823;53.586;10.040;2022-09-03T00:08:15;16.30;1.00
7564;DHT22;3823;53.586;10.040;2022-09-03T00:13:44;16.20;1.00
7564;DHT22;3823;53.586;10.040;2022-09-03T00:16:14;16.20;1.00
7564;DHT22;3823;53.586;10.040;2022-09-03T00:18:46;16.10;1.00
7564;DHT22;3823;53.586;10.040;2022-09-03T00:21:46;16.10;1.00
7564;DHT22;3823;53.586;10.040;2022-09-03T00:24:16;16.10;1.00
7564;DHT22;3823;53.586;10.040;2022-09-03T00:26:46;16.10;1.00
7564;DHT22;3823;53.586;10.040;2022-09-03T00:29:16;16.00;1.00
7564;DHT22;3823;53.586;10.040;2022-09-03T00:31:48;16.00;1.00
7564;DHT22;3823;53.586;10.040;2022-09-03T00:36:46;16.00;1.00
7564;DHT22;3823;53.586;10.040;2022-09-03T00:39:14;15.90;1.00
7564;DHT22;3823;53.586;10.040;2022-09-03T00:56:24;15.80;1.00
7564;DHT22;3823;53.586;10.040;2022-09-03T01:01:52;15.70;1.00
7564;DHT22;3823;53.586;10.040;2022-09-03T01:04:45;15.70;1.00
7564;DHT22;3823;53.586;10.040;2022-09-03T01:07:48;15.60;1.00
7564;DHT22;3823;53.586;10.040;2022-09-03T01:12:59;15.60;1.00
7564;DHT22;3823;53.586;10.040;2022-09-03T01:21:02;15.60;1.00
7564;DHT22;3823;53.586;10.040;2022-09-03T01:32:30;15.50;1.00
7564;DHT22;3823;53.586;10.040;2022-09-03T01:46:23;15.40;1.00
7564;DHT22;3823;53.586;10.040;2022-09-03T01:51:30;15.40;1.00
7564;DHT22;3823;53.586;10.040;2022-09-03T01:54:26;15.40;1.00
7564;DHT22;3823;53.586;10.040;2022-09-03T01:57:18;15.30;1.00
7564;DHT22;3823;53.586;10.040;2022-09-03T01:59:54;15.30;1.00
7564;DHT22;3823;53.586;10.040;2022-09-03T02:02:24;15.20;1.00
7564;DHT22;3823;53.586;10.040;2022-09-03T02:05:00;15.20;1.00
7564;DHT22;3823;53.586;10.040;2022-09-03T02:07:33;15.20;1.00
7564;DHT22;3823;53.586;10.040;2022-09-03T02:10:00;15.30;1.00
7564;DHT22;3823;53.586;10.040;2022-09-03T02:12:29;15.20;1.00
7564;DHT22;3823;53.586;10.040;2022-09-03T02:15:01;15.20;1.00
7564;DHT22;3823;53.586;10.040;2022-09-03T02:17:30;15.10;1.00
7564;DHT22;3823;53.586;10.040;2022-09-03T02:19:57;15.10;1.00
7564;DHT22;3823;53.586;10.040;2022-09-03T02:22:23;15.10;1.00
7564;DHT22;3823;53.586;10.040;2022-09-03T02:24:48;15.10;1.00
7564;DHT22;3823;53.586;10.040;2022-09-03T02:27:15;15.10;1.00
7564;DHT22;3823;53.586;10.040;2022-09-03T02:29:40;15.10;1.00
7564;DHT22;3823;53.586;10.040;2022-09-03T02:32:06;15.10;1.00
7564;DHT22;3823;53.586;10.040;2022-09-03T02:34:32;15.10;1.00
7564;DHT22;3823;53.586;10.040;2022-09-03T02:36:57;15.00;1.00
7564;DHT22;3823;53.586;10.040;2022-09-03T02:39:23;15.10;1.00
7564;DHT22;3823;53.586;10.040;2022-09-03T02:41:53;15.00;1.00
7564;DHT22;3823;53.586;10.040;2022-09-03T02:44:29;15.00;1.00
7564;DHT22;3823;53.586;10.040;2022-09-03T02:47:01;15.00;1.00
7564;DHT22;3823;53.586;10.040;2022-09-03T02:49:28;14.90;1.00
7564;DHT22;3823;53.586;10.040;2022-09-03T02:51:59;14.90;1.00
7564;DHT22;3823;53.586;10.040;2022-09-03T02:54:31;14.90;1.00
7564;DHT22;3823;53.586;10.040;2022-09-03T02:56:58;14.90;1.00
7564;DHT22;3823;53.586;10.040;2022-09-03T02:59:24;14.90;1.00
7564;DHT22;3823;53.586;10.040;2022-09-03T03:01:52;14.90;1.00
7564;DHT22;3823;53.586;10.040;2022-09-03T03:04:18;14.90;1.00
7564;DHT22;3823;53.586;10.040;2022-09-03T03:06:44;14.90;1.00
7564;DHT22;3823;53.586;10.040;2022-09-03T03:09:09;14.90;1.00
7564;DHT22;3823;53.586;10.040;2022-09-03T03:11:35;14.80;1.00
7564;DHT22;3823;53.586;10.040;2022-09-03T03:14:02;14.90;1.00
7564;DHT22;3823;53.586;10.040;2022-09-03T03:16:28;14.80;1.00
7564;DHT22;3823;53.586;10.040;2022-09-03T03:18:55;14.80;1.00
7564;DHT22;3823;53.586;10.040;2022-09-03T03:21:21;14.80;1.00
7564;DHT22;3823;53.586;10.040;2022-09-03T03:23:47;14.80;1.00
7564;DHT22;3823;53.586;10.040;2022-09-03T03:26:15;14.80;1.00
7564;DHT22;3823;53.586;10.040;2022-09-03T03:28:45;14.70;1.00
7564;DHT22;3823;53.586;10.040;2022-09-03T03:31:15;14.70;1.00
7564;DHT22;3823;53.586;10.040;2022-09-03T03:33:41;14.70;1.00
7564;DHT22;3823;53.586;10.040;2022-09-03T03:36:10;14.60;1.00
7564;DHT22;3823;53.586;10.040;2022-09-03T03:38:36;14.60;1.00
7564;DHT22;3823;53.586;10.040;2022-09-03T03:41:19;14.70;1.00
7564;DHT22;3823;53.586;10.040;2022-09-03T03:44:00;14.60;1.00
7564;DHT22;3823;53.586;10.040;2022-09-03T03:46:31;14.60;1.00
7564;DHT22;3823;53.586;10.040;2022-09-03T03:48:57;14.60;1.00
7564;DHT22;3823;53.586;10.040;2022-09-03T03:51:24;14.60;1.00
7564;DHT22;3823;53.586;10.040;2022-09-03T03:53:53;14.60;1.00
7564;DHT22;3823;53.586;10.040;2022-09-03T03:56:20;14.60;1.00
7564;DHT22;3823;53.586;10.040;2022-09-03T03:58:45;14.50;1.00
7564;DHT22;3823;53.586;10.040;2022-09-03T04:01:20;14.50;1.00
7564;DHT22;3823;53.586;10.040;2022-09-03T04:03:46;14.50;1.00
7564;DHT22;3823;53.586;10.040;2022-09-03T04:06:14;14.50;1.00
7564;DHT22;3823;53.586;10.040;2022-09-03T04:08:41;14.40;1.00
7564;DHT22;3823;53.586;10.040;2022-09-03T04:11:10;14.40;1.00
7564;DHT22;3823;53.586;10.040;2022-09-03T04:13:38;14.40;1.00
7564;DHT22;3823;53.586;10.040;2022-09-03T04:16:09;14.40;1.00
7564;DHT22;3823;53.586;10.040;2022-09-03T04:18:35;14.40;1.00
7564;DHT22;3823;53.586;10.040;2022-09-03T04:23:32;14.30;1.00
7564;DHT22;3823;53.586;10.040;2022-09-03T04:25:58;14.40;1.00
7564;DHT22;3823;53.586;10.040;2022-09-03T04:28:24;14.30;1.00
7564;DHT22;3823;53.586;10.040;2022-09-03T04:30:49;14.20;1.00
7564;DHT22;3823;53.586;10.040;2022-09-03T04:33:15;14.20;1.00
7564;DHT22;3823;53.586;10.040;2022-09-03T04:35:41;14.20;1.00
7564;DHT22;3823;53.586;10.040;2022-09-03T04:38:07;14.20;1.00
7564;DHT22;3823;53.586;10.040;2022-09-03T04:40:33;14.20;1.00
7564;DHT22;3823;53.586;10.040;2022-09-03T04:42:58;14.20;1.00
7564;DHT22;3823;53.586;10.040;2022-09-03T04:45:25;14.20;1.00
7564;DHT22;3823;53.586;10.040;2022-09-03T04:48:01;14.20;1.00
7564;DHT22;3823;53.586;10.040;2022-09-03T04:50:28;14.20;1.00
7564;DHT22;3823;53.586;10.040;2022-09-03T04:53:04;14.10;1.00
7564;DHT22;3823;53.586;10.040;2022-09-03T04:55:35;14.10;1.00
7564;DHT22;3823;53.586;10.040;2022-09-03T04:58:02;14.10;1.00
7564;DHT22;3823;53.586;10.040;2022-09-03T05:00:27;14.20;1.00
7564;DHT22;3823;53.586;10.040;2022-09-03T05:02:53;14.20;1.00
7564;DHT22;3823;53.586;10.040;2022-09-03T05:05:19;14.20;1.00
7564;DHT22;3823;53.586;10.040;2022-09-03T05:07:44;14.20;1.00
7564;DHT22;3823;53.586;10.040;2022-09-03T05:10:12;14.20;1.00
7564;DHT22;3823;53.586;10.040;2022-09-03T05:12:47;14.30;1.00
7564;DHT22;3823;53.586;10.040;2022-09-03T05:15:21;14.40;1.00
7564;DHT22;3823;53.586;10.040;2022-09-03T05:17:47;14.40;1.00
7564;DHT22;3823;53.586;10.040;2022-09-03T05:20:12;14.40;1.00
7564;DHT22;3823;53.586;10.040;2022-09-03T05:22:39;14.50;1.00
7564;DHT22;3823;53.586;10.040;2022-09-03T05:25:05;14.50;1.00
7564;DHT22;3823;53.586;10.040;2022-09-03T05:27:30;14.60;1.00
7564;DHT22;3823;53.586;10.040;2022-09-03T05:29:56;14.60;1.00
7564;DHT22;3823;53.586;10.040;2022-09-03T05:32:21;14.70;1.00
7564;DHT22;3823;53.586;10.040;2022-09-03T05:34:47;14.70;1.00
7564;DHT22;3823;53.586;10.040;2022-09-03T05:37:13;14.70;1.00
7564;DHT22;3823;53.586;10.040;2022-09-03T05:39:38;14.70;1.00
7564;DHT22;3823;53.586;10.040;2022-09-03T05:42:04;14.80;1.00
7564;DHT22;3823;53.586;10.040;2022-09-03T05:44:29;14.70;1.00
7564;DHT22;3823;53.586;10.040;2022-09-03T05:46:55;14.80;1.00
7564;DHT22;3823;53.586;10.040;2022-09-03T05:49:22;14.90;1.00
7564;DHT22;3823;53.586;10.040;2022-09-03T05:51:47;15.10;1.00
7564;DHT22;3823;53.586;10.040;2022-09-03T05:54:13;15.10;1.00
7564;DHT22;3823;53.586;10.040;2022-09-03T05:56:39;15.10;1.00
7564;DHT22;3823;53.586;10.040;2022-09-03T05:59:06;15.20;1.00
7564;DHT22;3823;53.586;10.040;2022-09-03T06:01:38;15.30;1.00
7564;DHT22;3823;53.586;10.040;2022-09-03T06:04:10;15.40;1.00
7564;DHT22;3823;53.586;10.040;2022-09-03T06:06:38;15.50;1.00
7564;DHT22;3823;53.586;10.040;2022-09-03T06:09:06;15.50;1.00
7564;DHT22;3823;53.586;10.040;2022-09-03T06:11:33;15.50;1.00
7564;DHT22;3823;53.586;10.040;2022-09-03T06:14:01;15.70;1.00
7564;DHT22;3823;53.586;10.040;2022-09-03T06:16:30;15.80;1.00
7564;DHT22;3823;53.586;10.040;2022-09-03T06:18:56;15.90;1.00
7564;DHT22;3823;53.586;10.040;2022-09-03T06:21:21;15.90;1.00
7564;DHT22;3823;53.586;10.040;2022-09-03T06:23:52;15.90;1.00
7564;DHT22;3823;53.586;10.040;2022-09-03T06:26:18;15.90;1.00
7564;DHT22;3823;53.586;10.040;2022-09-03T06:28:46;15.90;1.00
7564;DHT22;3823;53.586;10.040;2022-09-03T06:31:15;16.00;1.00
7564;DHT22;3823;53.586;10.040;2022-09-03T06:33:41;16.10;1.00
7564;DHT22;3823;53.586;10.040;2022-09-03T06:36:09;16.20;1.00
7564;DHT22;3823;53.586;10.040;2022-09-03T06:38:36;16.30;1.00
7564;DHT22;3823;53.586;10.040;2022-09-03T06:41:11;16.60;1.00
7564;DHT22;3823;53.586;10.040;2022-09-03T06:43:39;16.70;1.00
7564;DHT22;3823;53.586;10.040;2022-09-03T06:46:13;16.70;1.00
7564;DHT22;3823;53.586;10.040;2022-09-03T06:48:39;16.70;1.00
7564;DHT22;3823;53.586;10.040;2022-09-03T06:53:34;16.80;1.00
7564;DHT22;3823;53.586;10.040;2022-09-03T06:56:05;17.00;1.00
7564;DHT22;3823;53.586;10.040;2022-09-03T06:58:39;16.90;1.00
7564;DHT22;3823;53.586;10.040;2022-09-03T07:01:16;16.80;1.00
7564;DHT22;3823;53.586;10.040;2022-09-03T07:03:45;17.00;1.00
7564;DHT22;3823;53.586;10.040;2022-09-03T07:06:14;17.30;1.00
7564;DHT22;3823;53.586;10.040;2022-09-03T07:08:40;17.40;1.00
7564;DHT22;3823;53.586;10.040;2022-09-03T07:11:12;17.50;1.00
7564;DHT22;3823;53.586;10.040;2022-09-03T07:13:40;17.40;1.00
7564;DHT22;3823;53.586;10.040;2022-09-03T07:16:08;17.70;1.00
7564;DHT22;3823;53.586;10.040;2022-09-03T07:18:35;17.80;1.00
7564;DHT22;3823;53.586;10.040;2022-09-03T07:21:03;17.70;1.00
7564;DHT22;3823;53.586;10.040;2022-09-03T07:23:30;17.80;1.00
7564;DHT22;3823;53.586;10.040;2022-09-03T07:26:01;18.00;1.00
7564;DHT22;3823;53.586;10.040;2022-09-03T07:28:28;17.90;1.00
7564;DHT22;3823;53.586;10.040;2022-09-03T07:31:11;17.70;1.00
7564;DHT22;3823;53.586;10.040;2022-09-03T07:33:37;17.80;1.00
7564;DHT22;3823;53.586;10.040;2022-09-03T07:36:05;18.00;1.00
7564;DHT22;3823;53.586;10.040;2022-09-03T07:38:32;18.70;1.00
7564;DHT22;3823;53.586;10.040;2022-09-03T07:41:03;18.60;1.00
7564;DHT22;3823;53.586;10.040;2022-09-03T07:43:34;18.60;1.00
7564;DHT22;3823;53.586;10.040;2022-09-03T07:46:00;18.40;1.00
7564;DHT22;3823;53.586;10.040;2022-09-03T07:48:25;18.40;1.00
7564;DHT22;3823;53.586;10.040;2022-09-03T07:50:52;18.70;1.00
7564;DHT22;3823;53.586;10.040;2022-09-03T07:53:18;19.40;1.00
7564;DHT22;3823;53.586;10.040;2022-09-03T07:55:45;19.60;1.00
7564;DHT22;3823;53.586;10.040;2022-09-03T07:58:11;19.60;1.00
7564;DHT22;3823;53.586;10.040;2022-09-03T08:00:37;19.60;1.00
7564;DHT22;3823;53.586;10.040;2022-09-03T08:03:03;19.80;1.00
7564;DHT22;3823;53.586;10.040;2022-09-03T08:05:33;20.00;1.00
7564;DHT22;3823;53.586;10.040;2022-09-03T08:08:01;19.90;1.00
7564;DHT22;3823;53.586;10.040;2022-09-03T08:10:26;20.20;1.00
7564;DHT22;3823;53.586;10.040;2022-09-03T08:12:55;20.30;1.00
7564;DHT22;3823;53.586;10.040;2022-09-03T08:15:20;20.80;1.00
7564;DHT22;3823;53.586;10.040;2022-09-03T08:17:46;21.00;1.00
7564;DHT22;3823;53.586;10.040;2022-09-03T08:20:11;20.80;1.00
7564;DHT22;3823;53.586;10.040;2022-09-03T08:22:37;20.50;1.00
7564;DHT22;3823;53.586;10.040;2022-09-03T08:25:03;20.50;1.00
7564;DHT22;3823;53.586;10.040;2022-09-03T08:27:30;20.10;1.00
7564;DHT22;3823;53.586;10.040;2022-09-03T08:29:55;20.20;1.00
7564;DHT22;3823;53.586;10.040;2022-09-03T08:32:21;20.60;1.00
7564;DHT22;3823;53.586;10.040;2022-09-03T08:34:47;20.60;1.00
7564;DHT22;3823;53.586;10.040;2022-09-03T08:37:12;21.00;1.00
7564;DHT22;3823;53.586;10.040;2022-09-03T08:39:38;20.70;1.00
7564;DHT22;3823;53.586;10.040;2022-09-03T08:42:40;20.40;1.00
7564;DHT22;3823;53.586;10.040;2022-09-03T08:45:14;20.50;1.00
7564;DHT22;3823;53.586;10.040;2022-09-03T08:48:31;20.70;1.00
7564;DHT22;3823;53.586;10.040;2022-09-03T08:50:42;21.20;1.00
7564;DHT22;3823;53.586;10.040;2022-09-03T08:58:17;20.00;1.00
7564;DHT22;3823;53.586;10.040;2022-09-03T09:12:27;20.80;1.00
7564;DHT22;3823;53.586;10.040;2022-09-03T09:22:44;20.60;1.00
7564;DHT22;3823;53.586;10.040;2022-09-03T09:25:20;20.80;1.00
7564;DHT22;3823;53.586;10.040;2022-09-03T09:27:59;20.70;1.00
7564;DHT22;3823;53.586;10.040;2022-09-03T09:30:25;20.70;1.00
7564;DHT22;3823;53.586;10.040;2022-09-03T09:32:51;20.90;1.00
7564;DHT22;3823;53.586;10.040;2022-09-03T09:35:18;21.60;1.00
7564;DHT22;3823;53.586;10.040;2022-09-03T09:37:52;22.10;1.00
7564;DHT22;3823;53.586;10.040;2022-09-03T09:40:33;21.80;1.00
7564;DHT22;3823;53.586;10.040;2022-09-03T09:43:18;21.70;1.00
7564;DHT22;3823;53.586;10.040;2022-09-03T09:45:49;21.70;1.00
7564;DHT22;3823;53.586;10.040;2022-09-03T09:48:20;21.50;1.00
7564;DHT22;3823;53.586;10.040;2022-09-03T09:50:46;21.60;1.00
7564;DHT22;3823;53.586;10.040;2022-09-03T09:53:12;21.50;1.00
7564;DHT22;3823;53.586;10.040;2022-09-03T09:55:56;21.80;1.00
7564;DHT22;3823;53.586;10.040;2022-09-03T09:58:24;22.00;1.00
7564;DHT22;3823;53.586;10.040;2022-09-03T10:00:59;22.40;1.00
7564;DHT22;3823;53.586;10.040;2022-09-03T10:03:25;22.30;1.00
7564;DHT22;3823;53.586;10.040;2022-09-03T10:06:05;21.90;1.00
7564;DHT22;3823;53.586;10.040;2022-09-03T10:08:51;21.80;1.00
7564;DHT22;3823;53.586;10.040;2022-09-03T10:11:17;21.70;1.00
7564;DHT22;3823;53.586;10.040;2022-09-03T10:13:46;21.80;1.00
7564;DHT22;3823;53.586;10.040;2022-09-03T10:16:20;21.90;1.00
7564;DHT22;3823;53.586;10.040;2022-09-03T10:19:00;22.10;1.00
7564;DHT22;3823;53.586;10.040;2022-09-03T10:21:50;22.20;1.00
7564;DHT22;3823;53.586;10.040;2022-09-03T10:24:40;22.10;1.00
7564;DHT22;3823;53.586;10.040;2022-09-03T10:27:13;22.10;1.00
7564;DHT22;3823;53.586;10.040;2022-09-03T10:29:40;22.20;1.00
7564;DHT22;3823;53.586;10.040;2022-09-03T10:35:31;21.90;1.00
7564;DHT22;3823;53.586;10.040;2022-09-03T10:40:54;21.40;1.00
7564;DHT22;3823;53.586;10.040;2022-09-03T10:43:27;21.30;1.00
7564;DHT22;3823;53.586;10.040;2022-09-03T10:46:13;21.40;1.00
7564;DHT22;3823;53.586;10.040;2022-09-03T10:49:06;21.70;1.00
7564;DHT22;3823;53.586;10.040;2022-09-03T10:51:35;22.10;1.00
7564;DHT22;3823;53.586;10.040;2022-09-03T11:00:05;21.80;1.00
7564;DHT22;3823;53.586;10.040;2022-09-03T11:05:40;22.20;1.00
7564;DHT22;3823;53.586;10.040;2022-09-03T11:08:11;22.10;1.00
7564;DHT22;3823;53.586;10.040;2022-09-03T11:10:45;21.60;1.00
7564;DHT22;3823;53.586;10.040;2022-09-03T11:13:38;21.70;1.00
7564;DHT22;3823;53.586;10.040;2022-09-03T11:16:12;22.00;1.00
7564;DHT22;3823;53.586;10.040;2022-09-03T11:18:43;22.20;1.00
7564;DHT22;3823;53.586;10.040;2022-09-03T11:21:13;22.30;1.00
7564;DHT22;3823;53.586;10.040;2022-09-03T11:23:43;22.50;1.00
7564;DHT22;3823;53.586;10.040;2022-09-03T11:26:12;22.70;1.00
7564;DHT22;3823;53.586;10.040;2022-09-03T11:29:05;22.60;1.00
7564;DHT22;3823;53.586;10.040;2022-09-03T11:32:00;22.60;1.00
7564;DHT22;3823;53.586;10.040;2022-09-03T11:34:29;22.50;1.00
7564;DHT22;3823;53.586;10.040;2022-09-03T11:37:28;21.90;1.00
7564;DHT22;3823;53.586;10.040;2022-09-03T11:40:13;22.00;1.00
7564;DHT22;3823;53.586;10.040;2022-09-03T11:42:44;22.20;1.00
7564;DHT22;3823;53.586;10.040;2022-09-03T11:45:23;22.00;1.00
7564;DHT22;3823;53.586;10.040;2022-09-03T11:47:59;22.30;1.00
7564;DHT22;3823;53.586;10.040;2022-09-03T11:50:27;22.40;1.00
7564;DHT22;3823;53.586;10.040;2022-09-03T11:53:06;22.50;1.00
7564;DHT22;3823;53.586;10.040;2022-09-03T11:55:44;22.50;1.00
7564;DHT22;3823;53.586;10.040;2022-09-03T11:58:34;22.70;1.00
7564;DHT22;3823;53.586;10.040;2022-09-03T12:01:08;22.90;1.00
7564;DHT22;3823;53.586;10.040;2022-09-03T12:18:04;22.50;1.00
7564;DHT22;3823;53.586;10.040;2022-09-03T12:20:45;22.80;1.00
7564;DHT22;3823;53.586;10.040;2022-09-03T12:23:12;22.80;1.00
7564;DHT22;3823;53.586;10.040;2022-09-03T12:25:44;22.90;1.00
7564;DHT22;3823;53.586;10.040;2022-09-03T12:28:17;23.20;1.00
7564;DHT22;3823;53.586;10.040;2022-09-03T12:30:45;23.20;1.00
7564;DHT22;3823;53.586;10.040;2022-09-03T12:33:12;23.20;1.00
7564;DHT22;3823;53.586;10.040;2022-09-03T12:35:41;22.90;1.00
7564;DHT22;3823;53.586;10.040;2022-09-03T12:38:06;23.10;1.00
7564;DHT22;3823;53.586;10.040;2022-09-03T12:40:32;23.00;1.00
7564;DHT22;3823;53.586;10.040;2022-09-03T12:43:12;23.00;1.00
7564;DHT22;3823;53.586;10.040;2022-09-03T12:45:46;22.90;1.00
7564;DHT22;3823;53.586;10.040;2022-09-03T12:48:17;23.10;1.00
7564;DHT22;3823;53.586;10.040;2022-09-03T12:50:45;23.20;1.00
7564;DHT22;3823;53.586;10.040;2022-09-03T12:53:21;23.10;1.00
7564;DHT22;3823;53.586;10.040;2022-09-03T12:55:52;23.00;1.00
7564;DHT22;3823;53.586;10.040;2022-09-03T12:58:34;23.00;1.00
7564;DHT22;3823;53.586;10.040;2022-09-03T13:01:11;22.70;1.00
7564;DHT22;3823;53.586;10.040;2022-09-03T13:04:13;22.60;1.00
7564;DHT22;3823;53.586;10.040;2022-09-03T13:06:54;22.60;1.00
7564;DHT22;3823;53.586;10.040;2022-09-03T13:09:23;22.60;1.00
7564;DHT22;3823;53.586;10.040;2022-09-03T13:11:49;22.60;1.00
7564;DHT22;3823;53.586;10.040;2022-09-03T13:14:17;22.50;1.00
7564;DHT22;3823;53.586;10.040;2022-09-03T13:25:12;22.80;1.00
7564;DHT22;3823;53.586;10.040;2022-09-03T13:28:06;22.80;1.00
7564;DHT22;3823;53.586;10.040;2022-09-03T13:30:53;22.80;1.00
7564;DHT22;3823;53.586;10.040;2022-09-03T13:33:33;22.80;1.00
7564;DHT22;3823;53.586;10.040;2022-09-03T13:36:25;23.00;1.00
7564;DHT22;3823;53.586;10.040;2022-09-03T13:44:13;23.10;1.00
7564;DHT22;3823;53.586;10.040;2022-09-03T13:46:53;23.20;1.00
7564;DHT22;3823;53.586;10.040;2022-09-03T13:52:19;23.50;1.00
7564;DHT22;3823;53.586;10.040;2022-09-03T13:54:54;23.50;1.00
7564;DHT22;3823;53.586;10.040;2022-09-03T13:57:36;23.60;1.00
7564;DHT22;3823;53.586;10.040;2022-09-03T14:00:07;23.50;1.00
7564;DHT22;3823;53.586;10.040;2022-09-03T14:02:57;23.10;1.00
7564;DHT22;3823;53.586;10.040;2022-09-03T14:06:09;22.90;1.00
7564;DHT22;3823;53.586;10.040;2022-09-03T14:14:29;23.10;1.00
7564;DHT22;3823;53.586;10.040;2022-09-03T14:22:16;22.80;1.00
7564;DHT22;3823;53.586;10.040;2022-09-03T14:25:02;22.80;1.00
7564;DHT22;3823;53.586;10.040;2022-09-03T14:27:31;22.70;1.00
7564;DHT22;3823;53.586;10.040;2022-09-03T14:30:05;23.00;1.00
7564;DHT22;3823;53.586;10.040;2022-09-03T14:38:31;23.00;1.00
7564;DHT22;3823;53.586;10.040;2022-09-03T14:41:32;22.90;1.00
7564;DHT22;3823;53.586;10.040;2022-09-03T14:49:35;22.70;1.00
7564;DHT22;3823;53.586;10.040;2022-09-03T14:55:10;22.60;1.00
7564;DHT22;3823;53.586;10.040;2022-09-03T15:11:25;22.30;1.00
7564;DHT22;3823;53.586;10.040;2022-09-03T15:14:08;22.40;1.00
7564;DHT22;3823;53.586;10.040;2022-09-03T15:22:36;22.50;1.00
7564;DHT22;3823;53.586;10.040;2022-09-03T15:25:14;22.50;1.00
7564;DHT22;3823;53.586;10.040;2022-09-03T15:33:33;22.60;1.00
7564;DHT22;3823;53.586;10.040;2022-09-03T15:36:14;22.40;1.00
7564;DHT22;3823;53.586;10.040;2022-09-03T15:39:10;22.20;1.00
7564;DHT22;3823;53.586;10.040;2022-09-03T15:41:47;22.30;1.00
7564;DHT22;3823;53.586;10.040;2022-09-03T15:44:16;22.30;1.00
7564;DHT22;3823;53.586;10.040;2022-09-03T15:47:03;22.30;1.00
7564;DHT22;3823;53.586;10.040;2022-09-03T15:49:33;22.40;1.00
7564;DHT22;3823;53.586;10.040;2022-09-03T15:52:25;22.30;1.00
7564;DHT22;3823;53.586;10.040;2022-09-03T15:55:11;22.30;1.00
7564;DHT22;3823;53.586;10.040;2022-09-03T15:57:50;22.30;1.00
7564;DHT22;3823;53.586;10.040;2022-09-03T16:00:19;22.30;1.00
7564;DHT22;3823;53.586;10.040;2022-09-03T16:02:54;22.30;1.00
7564;DHT22;3823;53.586;10.040;2022-09-03T16:06:01;22.20;1.00
7564;DHT22;3823;53.586;10.040;2022-09-03T16:11:38;22.20;1.00
7564;DHT22;3823;53.586;10.040;2022-09-03T16:14:38;22.10;1.00
7564;DHT22;3823;53.586;10.040;2022-09-03T16:17:24;22.10;1.00
7564;DHT22;3823;53.586;10.040;2022-09-03T16:22:53;22.10;1.00
7564;DHT22;3823;53.586;10.040;2022-09-03T16:25:26;22.10;1.00
7564;DHT22;3823;53.586;10.040;2022-09-03T16:28:05;22.00;1.00
7564;DHT22;3823;53.586;10.040;2022-09-03T16:36:19;21.90;1.00
7564;DHT22;3823;53.586;10.040;2022-09-03T16:41:40;21.90;1.00
7564;DHT22;3823;53.586;10.040;2022-09-03T16:44:55;21.80;1.00
7564;DHT22;3823;53.586;10.040;2022-09-03T16:50:25;21.70;1.00
7564;DHT22;3823;53.586;10.040;2022-09-03T16:53:14;21.60;1.00
7564;DHT22;3823;53.586;10.040;2022-09-03T16:59:08;21.70;1.00
7564;DHT22;3823;53.586;10.040;2022-09-03T17:12:37;21.50;1.00
7564;DHT22;3823;53.586;10.040;2022-09-03T17:23:41;21.40;1.00
7564;DHT22;3823;53.586;10.040;2022-09-03T17:26:29;21.40;1.00
7564;DHT22;3823;53.586;10.040;2022-09-03T17:31:47;21.20;1.00
7564;DHT22;3823;53.586;10.040;2022-09-03T17:34:41;21.10;1.00
7564;DHT22;3823;53.586;10.040;2022-09-03T17:42:41;21.00;1.00
7564;DHT22;3823;53.586;10.040;2022-09-03T17:45:28;20.90;1.00
7564;DHT22;3823;53.586;10.040;2022-09-03T17:48:11;20.90;1.00
7564;DHT22;3823;53.586;10.040;2022-09-03T17:51:02;20.90;1.00
7564;DHT22;3823;53.586;10.040;2022-09-03T17:53:51;20.90;1.00
7564;DHT22;3823;53.586;10.040;2022-09-03T17:56:25;20.80;1.00
7564;DHT22;3823;53.586;10.040;2022-09-03T17:59:07;20.80;1.00
7564;DHT22;3823;53.586;10.040;2022-09-03T18:01:39;20.70;1.00
7564;DHT22;3823;53.586;10.040;2022-09-03T18:07:07;20.60;1.00
7564;DHT22;3823;53.586;10.040;2022-09-03T18:09:36;20.60;1.00
7564;DHT22;3823;53.586;10.040;2022-09-03T18:18:00;20.40;1.00
7564;DHT22;3823;53.586;10.040;2022-09-03T18:20:37;20.40;1.00
7564;DHT22;3823;53.586;10.040;2022-09-03T18:23:28;20.40;1.00
7564;DHT22;3823;53.586;10.040;2022-09-03T18:26:23;20.30;1.00
7564;DHT22;3823;53.586;10.040;2022-09-03T18:32:08;20.30;1.00
7564;DHT22;3823;53.586;10.040;2022-09-03T18:34:52;20.20;1.00
7564;DHT22;3823;53.586;10.040;2022-09-03T18:37:36;20.10;1.00
7564;DHT22;3823;53.586;10.040;2022-09-03T18:40:28;20.10;1.00
7564;DHT22;3823;53.586;10.040;2022-09-03T18:44:32;20.10;1.00
7564;DHT22;3823;53.586;10.040;2022-09-03T18:50:28;20.00;1.00
7564;DHT22;3823;53.586;10.040;2022-09-03T18:56:42;19.90;1.00
7564;DHT22;3823;53.586;10.040;2022-09-03T19:11:30;19.60;1.00
7564;DHT22;3823;53.586;10.040;2022-09-03T19:14:34;19.50;1.00
7564;DHT22;3823;53.586;10.040;2022-09-03T19:20:30;19.40;1.00
7564;DHT22;3823;53.586;10.040;2022-09-03T19:23:15;19.40;1.00
7564;DHT22;3823;53.586;10.040;2022-09-03T19:29:45;19.40;1.00
7564;DHT22;3823;53.586;10.040;2022-09-03T19:35:48;19.20;1.00
7564;DHT22;3823;53.586;10.040;2022-09-03T19:39:02;19.20;1.00
7564;DHT22;3823;53.586;10.040;2022-09-03T19:42:11;19.20;1.00
7564;DHT22;3823;53.586;10.040;2022-09-03T19:51:15;19.00;1.00
7564;DHT22;3823;53.586;10.040;2022-09-03T19:54:03;18.90;1.00
7564;DHT22;3823;53.586;10.040;2022-09-03T19:56:49;18.90;1.00
7564;DHT22;3823;53.586;10.040;2022-09-03T19:59:38;18.80;1.00
7564;DHT22;3823;53.586;10.040;2022-09-03T20:02:23;18.70;1.00
7564;DHT22;3823;53.586;10.040;2022-09-03T20:05:12;18.70;1.00
7564;DHT22;3823;53.586;10.040;2022-09-03T20:07:59;18.70;1.00
7564;DHT22;3823;53.586;10.040;2022-09-03T20:10:46;18.70;1.00
7564;DHT22;3823;53.586;10.040;2022-09-03T20:13:17;18.60;1.00
7564;DHT22;3823;53.586;10.040;2022-09-03T20:16:10;18.60;1.00
7564;DHT22;3823;53.586;10.040;2022-09-03T20:21:37;18.60;1.00
7564;DHT22;3823;53.586;10.040;2022-09-03T20:27:03;18.50;1.00
7564;DHT22;3823;53.586;10.040;2022-09-03T20:38:54;18.40;1.00
7564;DHT22;3823;53.586;10.040;2022-09-03T20:41:30;18.50;1.00
7564;DHT22;3823;53.586;10.040;2022-09-03T20:47:10;18.30;1.00
7564;DHT22;3823;53.586;10.040;2022-09-03T20:49:57;18.20;1.00
7564;DHT22;3823;53.586;10.040;2022-09-03T20:55:24;18.10;1.00
7564;DHT22;3823;53.586;10.040;2022-09-03T21:00:23;18.00;1.00
7564;DHT22;3823;53.586;10.040;2022-09-03T21:06:07;18.00;1.00
7564;DHT22;3823;53.586;10.040;2022-09-03T21:08:40;17.90;1.00
7564;DHT22;3823;53.586;10.040;2022-09-03T21:11:14;17.80;1.00
7564;DHT22;3823;53.586;10.040;2022-09-03T21:14:01;17.80;1.00
7564;DHT22;3823;53.586;10.040;2022-09-03T21:19:19;17.70;1.00
7564;DHT22;3823;53.586;10.040;2022-09-03T21:25:06;17.70;1.00
7564;DHT22;3823;53.586;10.040;2022-09-03T21:27:46;17.60;1.00
7564;DHT22;3823;53.586;10.040;2022-09-03T21:30:17;17.60;1.00
7564;DHT22;3823;53.586;10.040;2022-09-03T21:32:51;17.50;1.00
7564;DHT22;3823;53.586;10.040;2022-09-03T21:35:31;17.50;1.00
7564;DHT22;3823;53.586;10.040;2022-09-03T21:38:06;17.40;1.00
7564;DHT22;3823;53.586;10.040;2022-09-03T21:40:35;17.40;1.00
7564;DHT22;3823;53.586;10.040;2022-09-03T21:43:20;17.40;1.00
7564;DHT22;3823;53.586;10.040;2022-09-03T21:46:07;17.30;1.00
7564;DHT22;3823;53.586;10.040;2022-09-03T21:48:45;17.40;1.00
7564;DHT22;3823;53.586;10.040;2022-09-03T21:51:20;17.30;1.00
7564;DHT22;3823;53.586;10.040;2022-09-03T21:53:48;17.20;1.00
7564;DHT22;3823;53.586;10.040;2022-09-03T21:56:46;17.30;1.00